sensor_id;sensor_type;location;lat;lon;timestamp;P1;durP1;ratioP1;P2;durP2;ratioP2
6561;SDS011;3314;50.890;4.722;2022-10-16T00:00:40;9.7;;;1.0;;
6561;SDS011;3314;50.890;4.722;2022-10-16T00:02:40;5.8;;;0.9;;
6561;SDS011;3314;50.890;4.722;2022-10-16T00:04:39;10.4;;;1.0;;
6561;SDS011;3314;50.890;4.722;2022-10-16T00:06:39;6.0;;;1.1;;
6561;SDS011;3314;50.890;4.722;2022-10-16T00:08:39;8.2;;;1.1;;
6561;SDS011;3314;50.890;4.722;2022-10-16T00:10:39;7.3;;;0.7;;
6561;SDS011;3314;50.890;4.722;2022-10-16T00:12:39;6.1;;;0.7;;
6561;SDS011;3314;50.890;4.722;2022-10-16T00:14:41;7.0;;;1.4;;
6561;SDS011;3314;50.890;4.722;2022-10-16T00:16:41;6.8;;;1.0;;
6561;SDS011;3314;50.890;4.722;2022-10-16T00:18:41;6.1;;;0.8;;
6561;SDS011;3314;50.890;4.722;2022-10-16T00:20:41;8.1;;;1.1;;
6561;SDS011;3314;50.890;4.722;2022-10-16T00:22:41;6.7;;;1.0;;
6561;SDS011;3314;50.890;4.722;2022-10-16T00:24:40;7.1;;;0.8;;
6561;SDS011;3314;50.890;4.722;2022-10-16T00:26:40;5.9;;;0.7;;
6561;SDS011;3314;50.890;4.722;2022-10-16T00:28:40;6.2;;;0.8;;
6561;SDS011;3314;50.890;4.722;2022-10-16T00:30:44;5.3;;;0.7;;
6561;SDS011;3314;50.890;4.722;2022-10-16T00:32:44;7.8;;;0.8;;
6561;SDS011;3314;50.890;4.722;2022-10-16T00:34:44;7.2;;;0.8;;
6561;SDS011;3314;50.890;4.722;2022-10-16T00:36:43;5.4;;;0.6;;
6561;SDS011;3314;50.890;4.722;2022-10-16T00:38:43;5.5;;;0.7;;
6561;SDS011;3314;50.890;4.722;2022-10-16T00:40:43;7.8;;;1.0;;
6561;SDS011;3314;50.890;4.722;2022-10-16T00:42:42;6.1;;;1.2;;
6561;SDS011;3314;50.890;4.722;2022-10-16T00:44:44;5.6;;;0.8;;
6561;SDS011;3314;50.890;4.722;2022-10-16T00:46:43;5.7;;;0.7;;
6561;SDS011;3314;50.890;4.722;2022-10-16T00:48:45;7.0;;;1.2;;
6561;SDS011;3314;50.890;4.722;2022-10-16T00:50:34;5.6;;;0.7;;
6561;SDS011;3314;50.890;4.722;2022-10-16T00:52:34;5.5;;;1.0;;
6561;SDS011;3314;50.890;4.722;2022-10-16T00:54:34;5.6;;;0.8;;
6561;SDS011;3314;50.890;4.722;2022-10-16T00:56:34;5.8;;;0.9;;
6561;SDS011;3314;50.890;4.722;2022-10-16T00:58:34;8.2;;;0.7;;
6561;SDS011;3314;50.890;4.722;2022-10-16T01:00:33;6.9;;;0.9;;
6561;SDS011;3314;50.890;4.722;2022-10-16T01:02:33;5.5;;;0.8;;
6561;SDS011;3314;50.890;4.722;2022-10-16T01:04:34;5.5;;;0.6;;
6561;SDS011;3314;50.890;4.722;2022-10-16T01:06:36;5.6;;;0.7;;
6561;SDS011;3314;50.890;4.722;2022-10-16T01:08:41;5.4;;;0.7;;
6561;SDS011;3314;50.890;4.722;2022-10-16T01:10:34;5.4;;;0.8;;
6561;SDS011;3314;50.890;4.722;2022-10-16T01:12:38;5.8;;;0.8;;
6561;SDS011;3314;50.890;4.722;2022-10-16T01:14:40;5.6;;;0.9;;
6561;SDS011;3314;50.890;4.722;2022-10-16T01:16:40;6.4;;;0.9;;
6561;SDS011;3314;50.890;4.722;2022-10-16T01:18:32;6.4;;;0.8;;
6561;SDS011;3314;50.890;4.722;2022-10-16T01:20:33;8.3;;;0.8;;
6561;SDS011;3314;50.890;4.722;2022-10-16T01:22:37;5.3;;;0.8;;
6561;SDS011;3314;50.890;4.722;2022-10-16T01:24:38;7.1;;;1.2;;
6561;SDS011;3314;50.890;4.722;2022-10-16T01:26:44;5.3;;;0.6;;
6561;SDS011;3314;50.890;4.722;2022-10-16T01:28:33;6.0;;;0.8;;
6561;SDS011;3314;50.890;4.722;2022-10-16T01:30:33;5.4;;;0.7;;
6561;SDS011;3314;50.890;4.722;2022-10-16T01:32:36;5.7;;;0.8;;
6561;SDS011;3314;50.890;4.722;2022-10-16T01:34:38;5.9;;;0.7;;
6561;SDS011;3314;50.890;4.722;2022-10-16T01:36:31;5.2;;;0.7;;
6561;SDS011;3314;50.890;4.722;2022-10-16T01:38:34;6.0;;;0.9;;
6561;SDS011;3314;50.890;4.722;2022-10-16T01:40:35;5.5;;;0.7;;
6561;SDS011;3314;50.890;4.722;2022-10-16T01:42:37;5.9;;;0.8;;
6561;SDS011;3314;50.890;4.722;2022-10-16T01:44:37;6.1;;;0.8;;
6561;SDS011;3314;50.890;4.722;2022-10-16T01:46:27;5.2;;;0.8;;
6561;SDS011;3314;50.890;4.722;2022-10-16T01:48:27;6.7;;;1.1;;
6561;SDS011;3314;50.890;4.722;2022-10-16T01:50:28;5.9;;;0.8;;
6561;SDS011;3314;50.890;4.722;2022-10-16T01:52:28;6.0;;;0.9;;
6561;SDS011;3314;50.890;4.722;2022-10-16T01:54:28;5.2;;;0.7;;
6561;SDS011;3314;50.890;4.722;2022-10-16T01:56:30;6.0;;;0.8;;
6561;SDS011;3314;50.890;4.722;2022-10-16T01:58:31;5.8;;;0.9;;
6561;SDS011;3314;50.890;4.722;2022-10-16T02:00:33;5.2;;;0.8;;
6561;SDS011;3314;50.890;4.722;2022-10-16T02:02:33;5.8;;;0.9;;
6561;SDS011;3314;50.890;4.722;2022-10-16T02:04:34;5.7;;;1.1;;
6561;SDS011;3314;50.890;4.722;2022-10-16T02:06:26;5.7;;;0.8;;
6561;SDS011;3314;50.890;4.722;2022-10-16T02:08:27;6.0;;;1.0;;
6561;SDS011;3314;50.890;4.722;2022-10-16T02:10:31;5.3;;;0.8;;
6561;SDS011;3314;50.890;4.722;2022-10-16T02:12:31;6.4;;;0.7;;
6561;SDS011;3314;50.890;4.722;2022-10-16T02:14:34;4.9;;;0.6;;
6561;SDS011;3314;50.890;4.722;2022-10-16T02:16:34;6.2;;;0.8;;
6561;SDS011;3314;50.890;4.722;2022-10-16T02:18:23;5.9;;;0.9;;
6561;SDS011;3314;50.890;4.722;2022-10-16T02:20:25;7.3;;;1.0;;
6561;SDS011;3314;50.890;4.722;2022-10-16T02:22:27;5.9;;;0.8;;
6561;SDS011;3314;50.890;4.722;2022-10-16T02:24:28;6.5;;;0.8;;
6561;SDS011;3314;50.890;4.722;2022-10-16T02:26:33;6.7;;;1.0;;
6561;SDS011;3314;50.890;4.722;2022-10-16T02:28:24;8.5;;;0.8;;
6561;SDS011;3314;50.890;4.722;2022-10-16T02:30:27;8.7;;;1.1;;
6561;SDS011;3314;50.890;4.722;2022-10-16T02:32:30;5.7;;;1.0;;
6561;SDS011;3314;50.890;4.722;2022-10-16T02:34:30;5.5;;;0.8;;
6561;SDS011;3314;50.890;4.722;2022-10-16T02:36:21;6.2;;;0.9;;
6561;SDS011;3314;50.890;4.722;2022-10-16T02:38:21;5.9;;;0.9;;
6561;SDS011;3314;50.890;4.722;2022-10-16T02:40:22;6.2;;;0.9;;
6561;SDS011;3314;50.890;4.722;2022-10-16T02:42:26;6.1;;;0.9;;
6561;SDS011;3314;50.890;4.722;2022-10-16T02:44:26;5.7;;;0.9;;
6561;SDS011;3314;50.890;4.722;2022-10-16T02:46:26;8.6;;;0.8;;
6561;SDS011;3314;50.890;4.722;2022-10-16T02:48:26;5.9;;;1.0;;
6561;SDS011;3314;50.890;4.722;2022-10-16T02:50:26;10.5;;;0.9;;
6561;SDS011;3314;50.890;4.722;2022-10-16T02:52:25;6.1;;;1.0;;
6561;SDS011;3314;50.890;4.722;2022-10-16T02:54:25;5.6;;;1.0;;
6561;SDS011;3314;50.890;4.722;2022-10-16T02:56:24;6.7;;;0.8;;
6561;SDS011;3314;50.890;4.722;2022-10-16T02:58:24;5.3;;;0.7;;
6561;SDS011;3314;50.890;4.722;2022-10-16T03:00:24;5.7;;;1.0;;
6561;SDS011;3314;50.890;4.722;2022-10-16T03:02:24;6.1;;;0.9;;
6561;SDS011;3314;50.890;4.722;2022-10-16T03:04:24;5.3;;;0.7;;
6561;SDS011;3314;50.890;4.722;2022-10-16T03:06:23;6.4;;;0.8;;
6561;SDS011;3314;50.890;4.722;2022-10-16T03:08:25;7.0;;;1.3;;
6561;SDS011;3314;50.890;4.722;2022-10-16T03:10:25;6.2;;;1.0;;
6561;SDS011;3314;50.890;4.722;2022-10-16T03:12:24;6.2;;;1.0;;
6561;SDS011;3314;50.890;4.722;2022-10-16T03:14:24;5.3;;;0.9;;
6561;SDS011;3314;50.890;4.722;2022-10-16T03:16:24;6.7;;;0.8;;
6561;SDS011;3314;50.890;4.722;2022-10-16T03:18:24;6.1;;;0.9;;
6561;SDS011;3314;50.890;4.722;2022-10-16T03:20:24;7.8;;;0.7;;
6561;SDS011;3314;50.890;4.722;2022-10-16T03:22:23;6.9;;;1.0;;
6561;SDS011;3314;50.890;4.722;2022-10-16T03:24:23;5.3;;;0.8;;
6561;SDS011;3314;50.890;4.722;2022-10-16T03:26:23;8.6;;;0.9;;
6561;SDS011;3314;50.890;4.722;2022-10-16T03:28:22;6.4;;;1.0;;
6561;SDS011;3314;50.890;4.722;2022-10-16T03:30:22;6.7;;;0.9;;
6561;SDS011;3314;50.890;4.722;2022-10-16T03:32:25;9.0;;;1.1;;
6561;SDS011;3314;50.890;4.722;2022-10-16T03:34:14;6.5;;;1.0;;
6561;SDS011;3314;50.890;4.722;2022-10-16T03:36:14;5.2;;;0.9;;
6561;SDS011;3314;50.890;4.722;2022-10-16T03:38:14;6.4;;;1.3;;
6561;SDS011;3314;50.890;4.722;2022-10-16T03:40:14;7.6;;;1.1;;
6561;SDS011;3314;50.890;4.722;2022-10-16T03:42:13;5.5;;;0.9;;
6561;SDS011;3314;50.890;4.722;2022-10-16T03:44:13;6.1;;;0.7;;
6561;SDS011;3314;50.890;4.722;2022-10-16T03:46:13;7.1;;;0.9;;
6561;SDS011;3314;50.890;4.722;2022-10-16T03:48:12;5.4;;;1.0;;
6561;SDS011;3314;50.890;4.722;2022-10-16T03:50:12;5.6;;;0.9;;
6561;SDS011;3314;50.890;4.722;2022-10-16T03:52:12;7.1;;;1.3;;
6561;SDS011;3314;50.890;4.722;2022-10-16T03:54:12;5.4;;;0.7;;
6561;SDS011;3314;50.890;4.722;2022-10-16T03:56:12;5.4;;;1.0;;
6561;SDS011;3314;50.890;4.722;2022-10-16T03:58:11;6.7;;;1.0;;
6561;SDS011;3314;50.890;4.722;2022-10-16T04:00:11;5.6;;;0.9;;
6561;SDS011;3314;50.890;4.722;2022-10-16T04:02:11;6.1;;;1.0;;
6561;SDS011;3314;50.890;4.722;2022-10-16T04:04:11;6.8;;;1.3;;
6561;SDS011;3314;50.890;4.722;2022-10-16T04:06:10;6.7;;;0.9;;
6561;SDS011;3314;50.890;4.722;2022-10-16T04:08:10;9.5;;;0.9;;
6561;SDS011;3314;50.890;4.722;2022-10-16T04:10:10;6.1;;;1.2;;
6561;SDS011;3314;50.890;4.722;2022-10-16T04:12:10;5.4;;;0.9;;
6561;SDS011;3314;50.890;4.722;2022-10-16T04:14:10;5.0;;;0.6;;
6561;SDS011;3314;50.890;4.722;2022-10-16T04:16:09;5.2;;;1.1;;
6561;SDS011;3314;50.890;4.722;2022-10-16T04:18:09;6.5;;;1.1;;
6561;SDS011;3314;50.890;4.722;2022-10-16T04:20:09;7.1;;;0.9;;
6561;SDS011;3314;50.890;4.722;2022-10-16T04:22:09;6.4;;;1.1;;
6561;SDS011;3314;50.890;4.722;2022-10-16T04:24:09;5.4;;;0.7;;
6561;SDS011;3314;50.890;4.722;2022-10-16T04:26:08;6.1;;;0.9;;
6561;SDS011;3314;50.890;4.722;2022-10-16T04:28:08;6.3;;;0.9;;
6561;SDS011;3314;50.890;4.722;2022-10-16T04:30:08;6.6;;;0.9;;
6561;SDS011;3314;50.890;4.722;2022-10-16T04:32:08;5.4;;;0.8;;
6561;SDS011;3314;50.890;4.722;2022-10-16T04:34:08;6.6;;;1.0;;
6561;SDS011;3314;50.890;4.722;2022-10-16T04:36:08;6.6;;;1.0;;
6561;SDS011;3314;50.890;4.722;2022-10-16T04:38:07;5.7;;;1.0;;
6561;SDS011;3314;50.890;4.722;2022-10-16T04:40:07;7.2;;;1.0;;
6561;SDS011;3314;50.890;4.722;2022-10-16T04:42:07;7.0;;;1.0;;
6561;SDS011;3314;50.890;4.722;2022-10-16T04:44:07;6.8;;;1.1;;
6561;SDS011;3314;50.890;4.722;2022-10-16T04:46:07;5.8;;;0.9;;
6561;SDS011;3314;50.890;4.722;2022-10-16T04:48:06;5.5;;;1.0;;
6561;SDS011;3314;50.890;4.722;2022-10-16T04:50:07;9.8;;;1.3;;
6561;SDS011;3314;50.890;4.722;2022-10-16T04:52:06;7.1;;;1.6;;
6561;SDS011;3314;50.890;4.722;2022-10-16T04:54:06;13.0;;;2.2;;
6561;SDS011;3314;50.890;4.722;2022-10-16T04:56:06;11.9;;;2.3;;
6561;SDS011;3314;50.890;4.722;2022-10-16T04:58:06;7.2;;;1.8;;
6561;SDS011;3314;50.890;4.722;2022-10-16T05:00:06;8.0;;;1.7;;
6561;SDS011;3314;50.890;4.722;2022-10-16T05:02:06;5.9;;;1.2;;
6561;SDS011;3314;50.890;4.722;2022-10-16T05:04:05;6.1;;;1.3;;
6561;SDS011;3314;50.890;4.722;2022-10-16T05:06:05;9.3;;;1.4;;
6561;SDS011;3314;50.890;4.722;2022-10-16T05:08:05;8.4;;;1.1;;
6561;SDS011;3314;50.890;4.722;2022-10-16T05:10:05;9.3;;;1.7;;
6561;SDS011;3314;50.890;4.722;2022-10-16T05:12:06;6.8;;;1.6;;
6561;SDS011;3314;50.890;4.722;2022-10-16T05:14:05;7.0;;;1.6;;
6561;SDS011;3314;50.890;4.722;2022-10-16T05:16:05;7.8;;;1.2;;
6561;SDS011;3314;50.890;4.722;2022-10-16T05:18:05;6.9;;;1.4;;
6561;SDS011;3314;50.890;4.722;2022-10-16T05:20:05;7.3;;;1.6;;
6561;SDS011;3314;50.890;4.722;2022-10-16T05:22:05;6.2;;;1.6;;
6561;SDS011;3314;50.890;4.722;2022-10-16T05:24:05;7.0;;;1.1;;
6561;SDS011;3314;50.890;4.722;2022-10-16T05:26:04;7.7;;;1.2;;
6561;SDS011;3314;50.890;4.722;2022-10-16T05:28:04;7.0;;;1.4;;
6561;SDS011;3314;50.890;4.722;2022-10-16T05:30:04;5.8;;;1.3;;
6561;SDS011;3314;50.890;4.722;2022-10-16T05:32:04;7.9;;;1.2;;
6561;SDS011;3314;50.890;4.722;2022-10-16T05:34:04;6.9;;;1.2;;
6561;SDS011;3314;50.890;4.722;2022-10-16T05:36:04;6.8;;;1.5;;
6561;SDS011;3314;50.890;4.722;2022-10-16T05:38:04;5.6;;;1.1;;
6561;SDS011;3314;50.890;4.722;2022-10-16T05:40:05;5.6;;;1.1;;
6561;SDS011;3314;50.890;4.722;2022-10-16T05:42:05;6.5;;;1.1;;
6561;SDS011;3314;50.890;4.722;2022-10-16T05:44:05;8.2;;;1.1;;
6561;SDS011;3314;50.890;4.722;2022-10-16T05:46:05;9.3;;;1.3;;
6561;SDS011;3314;50.890;4.722;2022-10-16T05:48:05;8.0;;;1.3;;
6561;SDS011;3314;50.890;4.722;2022-10-16T05:50:05;6.6;;;1.0;;
6561;SDS011;3314;50.890;4.722;2022-10-16T05:52:05;9.5;;;1.0;;
6561;SDS011;3314;50.890;4.722;2022-10-16T05:54:04;6.6;;;0.9;;
6561;SDS011;3314;50.890;4.722;2022-10-16T05:56:05;8.5;;;1.6;;
6561;SDS011;3314;50.890;4.722;2022-10-16T05:58:04;6.0;;;1.0;;
6561;SDS011;3314;50.890;4.722;2022-10-16T06:00:05;5.4;;;1.1;;
6561;SDS011;3314;50.890;4.722;2022-10-16T06:02:05;8.1;;;1.0;;
6561;SDS011;3314;50.890;4.722;2022-10-16T06:04:04;5.7;;;1.0;;
6561;SDS011;3314;50.890;4.722;2022-10-16T06:06:07;7.0;;;1.1;;
6561;SDS011;3314;50.890;4.722;2022-10-16T06:07:56;7.2;;;1.0;;
6561;SDS011;3314;50.890;4.722;2022-10-16T06:09:56;10.7;;;1.2;;
6561;SDS011;3314;50.890;4.722;2022-10-16T06:11:56;6.4;;;1.0;;
6561;SDS011;3314;50.890;4.722;2022-10-16T06:13:57;6.5;;;1.2;;
6561;SDS011;3314;50.890;4.722;2022-10-16T06:15:57;5.7;;;1.2;;
6561;SDS011;3314;50.890;4.722;2022-10-16T06:17:57;6.1;;;1.3;;
6561;SDS011;3314;50.890;4.722;2022-10-16T06:19:57;7.3;;;1.3;;
6561;SDS011;3314;50.890;4.722;2022-10-16T06:21:58;8.8;;;1.6;;
6561;SDS011;3314;50.890;4.722;2022-10-16T06:23:58;6.1;;;1.2;;
6561;SDS011;3314;50.890;4.722;2022-10-16T06:26:04;6.3;;;1.1;;
6561;SDS011;3314;50.890;4.722;2022-10-16T06:27:53;7.1;;;1.2;;
6561;SDS011;3314;50.890;4.722;2022-10-16T06:29:53;5.7;;;1.0;;
6561;SDS011;3314;50.890;4.722;2022-10-16T06:31:53;8.8;;;1.2;;
6561;SDS011;3314;50.890;4.722;2022-10-16T06:33:53;6.6;;;1.0;;
6561;SDS011;3314;50.890;4.722;2022-10-16T06:35:53;7.2;;;1.3;;
6561;SDS011;3314;50.890;4.722;2022-10-16T06:37:52;7.4;;;1.2;;
6561;SDS011;3314;50.890;4.722;2022-10-16T06:39:53;7.5;;;1.3;;
6561;SDS011;3314;50.890;4.722;2022-10-16T06:41:52;6.3;;;1.2;;
6561;SDS011;3314;50.890;4.722;2022-10-16T06:43:52;12.1;;;1.6;;
6561;SDS011;3314;50.890;4.722;2022-10-16T06:45:52;6.3;;;1.3;;
6561;SDS011;3314;50.890;4.722;2022-10-16T06:47:52;7.8;;;1.1;;
6561;SDS011;3314;50.890;4.722;2022-10-16T06:49:51;5.9;;;1.0;;
6561;SDS011;3314;50.890;4.722;2022-10-16T06:51:51;5.4;;;0.9;;
6561;SDS011;3314;50.890;4.722;2022-10-16T06:53:51;13.0;;;1.5;;
6561;SDS011;3314;50.890;4.722;2022-10-16T06:55:51;7.4;;;1.3;;
6561;SDS011;3314;50.890;4.722;2022-10-16T06:57:51;8.8;;;1.3;;
6561;SDS011;3314;50.890;4.722;2022-10-16T06:59:50;8.9;;;1.4;;
6561;SDS011;3314;50.890;4.722;2022-10-16T07:01:50;7.2;;;1.3;;
6561;SDS011;3314;50.890;4.722;2022-10-16T07:03:50;5.9;;;1.2;;
6561;SDS011;3314;50.890;4.722;2022-10-16T07:05:50;7.2;;;1.5;;
6561;SDS011;3314;50.890;4.722;2022-10-16T07:07:49;5.9;;;1.2;;
6561;SDS011;3314;50.890;4.722;2022-10-16T07:09:49;6.5;;;1.4;;
6561;SDS011;3314;50.890;4.722;2022-10-16T07:11:49;9.0;;;1.1;;
6561;SDS011;3314;50.890;4.722;2022-10-16T07:13:49;5.9;;;1.4;;
6561;SDS011;3314;50.890;4.722;2022-10-16T07:15:48;6.7;;;1.4;;
6561;SDS011;3314;50.890;4.722;2022-10-16T07:17:48;6.6;;;1.0;;
6561;SDS011;3314;50.890;4.722;2022-10-16T07:19:48;6.8;;;1.6;;
6561;SDS011;3314;50.890;4.722;2022-10-16T07:21:48;6.6;;;1.4;;
6561;SDS011;3314;50.890;4.722;2022-10-16T07:23:50;6.2;;;1.3;;
6561;SDS011;3314;50.890;4.722;2022-10-16T07:25:53;7.4;;;1.3;;
6561;SDS011;3314;50.890;4.722;2022-10-16T07:27:57;6.6;;;1.5;;
6561;SDS011;3314;50.890;4.722;2022-10-16T07:29:46;6.5;;;1.3;;
6561;SDS011;3314;50.890;4.722;2022-10-16T07:31:46;10.2;;;2.0;;
6561;SDS011;3314;50.890;4.722;2022-10-16T07:33:47;6.3;;;1.3;;
6561;SDS011;3314;50.890;4.722;2022-10-16T07:35:48;10.9;;;1.5;;
6561;SDS011;3314;50.890;4.722;2022-10-16T07:37:48;9.9;;;1.7;;
6561;SDS011;3314;50.890;4.722;2022-10-16T07:39:48;8.6;;;2.2;;
6561;SDS011;3314;50.890;4.722;2022-10-16T07:41:47;7.9;;;1.6;;
6561;SDS011;3314;50.890;4.722;2022-10-16T07:43:48;6.7;;;1.3;;
6561;SDS011;3314;50.890;4.722;2022-10-16T07:45:48;6.6;;;1.4;;
6561;SDS011;3314;50.890;4.722;2022-10-16T07:47:48;7.8;;;1.6;;
6561;SDS011;3314;50.890;4.722;2022-10-16T07:49:48;8.1;;;2.0;;
6561;SDS011;3314;50.890;4.722;2022-10-16T07:51:48;6.9;;;1.5;;
6561;SDS011;3314;50.890;4.722;2022-10-16T07:53:48;6.4;;;1.5;;
6561;SDS011;3314;50.890;4.722;2022-10-16T07:55:47;7.1;;;1.7;;
6561;SDS011;3314;50.890;4.722;2022-10-16T07:57:47;6.7;;;1.3;;
6561;SDS011;3314;50.890;4.722;2022-10-16T07:59:47;7.2;;;1.4;;
6561;SDS011;3314;50.890;4.722;2022-10-16T08:01:46;7.4;;;1.9;;
6561;SDS011;3314;50.890;4.722;2022-10-16T08:03:48;8.4;;;1.3;;
6561;SDS011;3314;50.890;4.722;2022-10-16T08:05:48;7.5;;;1.5;;
6561;SDS011;3314;50.890;4.722;2022-10-16T08:07:48;9.4;;;1.3;;
6561;SDS011;3314;50.890;4.722;2022-10-16T08:09:49;7.6;;;1.5;;
6561;SDS011;3314;50.890;4.722;2022-10-16T08:11:48;7.0;;;1.5;;
6561;SDS011;3314;50.890;4.722;2022-10-16T08:13:48;8.2;;;1.5;;
6561;SDS011;3314;50.890;4.722;2022-10-16T08:15:48;8.5;;;1.3;;
6561;SDS011;3314;50.890;4.722;2022-10-16T08:17:54;8.7;;;1.6;;
6561;SDS011;3314;50.890;4.722;2022-10-16T08:19:44;9.2;;;1.2;;
6561;SDS011;3314;50.890;4.722;2022-10-16T08:21:46;5.9;;;1.3;;
6561;SDS011;3314;50.890;4.722;2022-10-16T08:23:46;6.0;;;1.2;;
6561;SDS011;3314;50.890;4.722;2022-10-16T08:25:46;7.3;;;1.3;;
6561;SDS011;3314;50.890;4.722;2022-10-16T08:27:45;6.6;;;1.4;;
6561;SDS011;3314;50.890;4.722;2022-10-16T08:29:45;6.4;;;1.3;;
6561;SDS011;3314;50.890;4.722;2022-10-16T08:31:45;8.3;;;1.2;;
6561;SDS011;3314;50.890;4.722;2022-10-16T08:33:45;6.7;;;1.2;;
6561;SDS011;3314;50.890;4.722;2022-10-16T08:35:50;9.0;;;1.1;;
6561;SDS011;3314;50.890;4.722;2022-10-16T08:37:38;7.7;;;1.2;;
6561;SDS011;3314;50.890;4.722;2022-10-16T08:39:37;5.7;;;1.0;;
6561;SDS011;3314;50.890;4.722;2022-10-16T08:42:00;8.5;;;1.2;;
6561;SDS011;3314;50.890;4.722;2022-10-16T08:43:42;5.8;;;0.9;;
6561;SDS011;3314;50.890;4.722;2022-10-16T08:45:45;7.0;;;1.0;;
6561;SDS011;3314;50.890;4.722;2022-10-16T08:47:41;7.0;;;1.3;;
6561;SDS011;3314;50.890;4.722;2022-10-16T08:49:43;7.9;;;1.3;;
6561;SDS011;3314;50.890;4.722;2022-10-16T08:51:37;5.4;;;0.9;;
6561;SDS011;3314;50.890;4.722;2022-10-16T08:53:46;8.4;;;1.0;;
6561;SDS011;3314;50.890;4.722;2022-10-16T08:55:38;6.0;;;1.1;;
6561;SDS011;3314;50.890;4.722;2022-10-16T08:57:40;6.2;;;0.9;;
6561;SDS011;3314;50.890;4.722;2022-10-16T08:59:42;5.8;;;1.2;;
6561;SDS011;3314;50.890;4.722;2022-10-16T09:01:44;8.7;;;1.3;;
6561;SDS011;3314;50.890;4.722;2022-10-16T09:03:49;7.3;;;1.1;;
6561;SDS011;3314;50.890;4.722;2022-10-16T09:05:45;10.0;;;0.9;;
6561;SDS011;3314;50.890;4.722;2022-10-16T09:07:40;14.1;;;1.1;;
6561;SDS011;3314;50.890;4.722;2022-10-16T09:09:45;6.1;;;0.9;;
6561;SDS011;3314;50.890;4.722;2022-10-16T09:11:39;7.1;;;1.0;;
6561;SDS011;3314;50.890;4.722;2022-10-16T09:13:46;7.3;;;1.0;;
6561;SDS011;3314;50.890;4.722;2022-10-16T09:15:36;6.9;;;1.1;;
6561;SDS011;3314;50.890;4.722;2022-10-16T09:17:39;8.0;;;1.3;;
6561;SDS011;3314;50.890;4.722;2022-10-16T09:19:41;6.3;;;1.2;;
6561;SDS011;3314;50.890;4.722;2022-10-16T09:21:35;6.5;;;1.0;;
6561;SDS011;3314;50.890;4.722;2022-10-16T09:23:36;6.9;;;0.9;;
6561;SDS011;3314;50.890;4.722;2022-10-16T09:25:36;12.2;;;1.4;;
6561;SDS011;3314;50.890;4.722;2022-10-16T09:27:37;7.7;;;1.2;;
6561;SDS011;3314;50.890;4.722;2022-10-16T09:29:37;8.1;;;0.9;;
6561;SDS011;3314;50.890;4.722;2022-10-16T09:31:37;7.3;;;0.7;;
6561;SDS011;3314;50.890;4.722;2022-10-16T09:33:37;8.6;;;0.8;;
6561;SDS011;3314;50.890;4.722;2022-10-16T09:35:39;7.6;;;0.9;;
6561;SDS011;3314;50.890;4.722;2022-10-16T09:37:39;8.4;;;0.8;;
6561;SDS011;3314;50.890;4.722;2022-10-16T09:39:44;8.0;;;1.1;;
6561;SDS011;3314;50.890;4.722;2022-10-16T09:41:33;6.8;;;0.9;;
6561;SDS011;3314;50.890;4.722;2022-10-16T09:43:34;6.2;;;0.8;;
6561;SDS011;3314;50.890;4.722;2022-10-16T09:45:35;7.9;;;0.9;;
6561;SDS011;3314;50.890;4.722;2022-10-16T09:47:36;7.7;;;0.8;;
6561;SDS011;3314;50.890;4.722;2022-10-16T09:49:39;7.1;;;0.8;;
6561;SDS011;3314;50.890;4.722;2022-10-16T09:51:38;6.8;;;1.0;;
6561;SDS011;3314;50.890;4.722;2022-10-16T09:53:39;7.3;;;0.8;;
6561;SDS011;3314;50.890;4.722;2022-10-16T09:55:49;6.5;;;0.9;;
6561;SDS011;3314;50.890;4.722;2022-10-16T09:57:36;12.5;;;0.9;;
6561;SDS011;3314;50.890;4.722;2022-10-16T09:59:45;6.6;;;0.8;;
6561;SDS011;3314;50.890;4.722;2022-10-16T10:01:35;7.8;;;0.7;;
6561;SDS011;3314;50.890;4.722;2022-10-16T10:03:37;7.6;;;1.1;;
6561;SDS011;3314;50.890;4.722;2022-10-16T10:05:37;8.0;;;1.0;;
6561;SDS011;3314;50.890;4.722;2022-10-16T10:07:39;9.1;;;0.9;;
6561;SDS011;3314;50.890;4.722;2022-10-16T10:09:31;6.7;;;1.1;;
6561;SDS011;3314;50.890;4.722;2022-10-16T10:11:40;6.7;;;1.4;;
6561;SDS011;3314;50.890;4.722;2022-10-16T10:13:28;8.5;;;0.9;;
6561;SDS011;3314;50.890;4.722;2022-10-16T10:15:29;5.7;;;0.8;;
6561;SDS011;3314;50.890;4.722;2022-10-16T10:17:32;8.3;;;1.2;;
6561;SDS011;3314;50.890;4.722;2022-10-16T10:19:37;10.6;;;1.3;;
6561;SDS011;3314;50.890;4.722;2022-10-16T10:21:37;11.2;;;1.0;;
6561;SDS011;3314;50.890;4.722;2022-10-16T10:23:37;7.9;;;1.1;;
6561;SDS011;3314;50.890;4.722;2022-10-16T10:25:46;7.5;;;1.0;;
6561;SDS011;3314;50.890;4.722;2022-10-16T10:27:38;5.8;;;0.8;;
6561;SDS011;3314;50.890;4.722;2022-10-16T10:29:31;8.7;;;1.1;;
6561;SDS011;3314;50.890;4.722;2022-10-16T10:31:36;9.6;;;1.1;;
6561;SDS011;3314;50.890;4.722;2022-10-16T10:33:28;7.9;;;1.1;;
6561;SDS011;3314;50.890;4.722;2022-10-16T10:35:30;6.4;;;0.7;;
6561;SDS011;3314;50.890;4.722;2022-10-16T10:37:35;7.8;;;1.0;;
6561;SDS011;3314;50.890;4.722;2022-10-16T10:39:27;9.2;;;1.0;;
6561;SDS011;3314;50.890;4.722;2022-10-16T10:42:03;9.7;;;0.9;;
6561;SDS011;3314;50.890;4.722;2022-10-16T10:43:35;7.8;;;1.1;;
6561;SDS011;3314;50.890;4.722;2022-10-16T10:45:27;5.7;;;0.7;;
6561;SDS011;3314;50.890;4.722;2022-10-16T10:47:29;10.4;;;1.0;;
6561;SDS011;3314;50.890;4.722;2022-10-16T10:49:34;9.0;;;0.8;;
6561;SDS011;3314;50.890;4.722;2022-10-16T10:51:27;6.1;;;0.7;;
6561;SDS011;3314;50.890;4.722;2022-10-16T10:53:32;6.8;;;1.0;;
6561;SDS011;3314;50.890;4.722;2022-10-16T10:55:36;10.4;;;1.1;;
6561;SDS011;3314;50.890;4.722;2022-10-16T10:57:28;7.8;;;0.8;;
6561;SDS011;3314;50.890;4.722;2022-10-16T10:59:43;6.3;;;0.8;;
6561;SDS011;3314;50.890;4.722;2022-10-16T11:01:26;6.0;;;0.7;;
6561;SDS011;3314;50.890;4.722;2022-10-16T11:03:35;6.7;;;1.0;;
6561;SDS011;3314;50.890;4.722;2022-10-16T11:05:32;7.7;;;0.9;;
6561;SDS011;3314;50.890;4.722;2022-10-16T11:07:25;7.4;;;0.8;;
6561;SDS011;3314;50.890;4.722;2022-10-16T11:09:28;8.7;;;0.8;;
6561;SDS011;3314;50.890;4.722;2022-10-16T11:11:30;9.2;;;0.8;;
6561;SDS011;3314;50.890;4.722;2022-10-16T11:13:33;7.2;;;0.8;;
6561;SDS011;3314;50.890;4.722;2022-10-16T11:15:25;6.2;;;0.7;;
6561;SDS011;3314;50.890;4.722;2022-10-16T11:17:27;7.8;;;0.9;;
6561;SDS011;3314;50.890;4.722;2022-10-16T11:19:33;8.7;;;1.0;;
6561;SDS011;3314;50.890;4.722;2022-10-16T11:21:23;6.0;;;0.8;;
6561;SDS011;3314;50.890;4.722;2022-10-16T11:23:24;6.3;;;0.8;;
6561;SDS011;3314;50.890;4.722;2022-10-16T11:25:25;7.2;;;0.8;;
6561;SDS011;3314;50.890;4.722;2022-10-16T11:27:27;5.7;;;0.7;;
6561;SDS011;3314;50.890;4.722;2022-10-16T11:29:30;9.0;;;0.7;;
6561;SDS011;3314;50.890;4.722;2022-10-16T11:31:34;7.4;;;1.1;;
6561;SDS011;3314;50.890;4.722;2022-10-16T11:33:25;8.4;;;0.9;;
6561;SDS011;3314;50.890;4.722;2022-10-16T11:35:29;9.1;;;0.7;;
6561;SDS011;3314;50.890;4.722;2022-10-16T11:37:32;9.7;;;1.1;;
6561;SDS011;3314;50.890;4.722;2022-10-16T11:39:22;5.6;;;0.7;;
6561;SDS011;3314;50.890;4.722;2022-10-16T11:41:26;6.9;;;0.7;;
6561;SDS011;3314;50.890;4.722;2022-10-16T11:43:28;7.0;;;0.8;;
6561;SDS011;3314;50.890;4.722;2022-10-16T11:45:33;7.8;;;0.8;;
6561;SDS011;3314;50.890;4.722;2022-10-16T11:47:25;8.9;;;1.7;;
6561;SDS011;3314;50.890;4.722;2022-10-16T11:49:26;7.1;;;0.9;;
6561;SDS011;3314;50.890;4.722;2022-10-16T11:51:29;7.7;;;0.8;;
6561;SDS011;3314;50.890;4.722;2022-10-16T11:53:35;7.6;;;1.2;;
6561;SDS011;3314;50.890;4.722;2022-10-16T11:55:27;6.1;;;0.9;;
6561;SDS011;3314;50.890;4.722;2022-10-16T11:57:29;7.9;;;0.7;;
6561;SDS011;3314;50.890;4.722;2022-10-16T11:59:22;8.8;;;1.0;;
6561;SDS011;3314;50.890;4.722;2022-10-16T12:01:27;6.6;;;0.7;;
6561;SDS011;3314;50.890;4.722;2022-10-16T12:03:28;7.1;;;1.2;;
6561;SDS011;3314;50.890;4.722;2022-10-16T12:05:35;6.1;;;0.7;;
6561;SDS011;3314;50.890;4.722;2022-10-16T12:07:27;9.9;;;0.9;;
6561;SDS011;3314;50.890;4.722;2022-10-16T12:09:29;6.1;;;0.7;;
6561;SDS011;3314;50.890;4.722;2022-10-16T12:11:23;5.8;;;0.6;;
6561;SDS011;3314;50.890;4.722;2022-10-16T12:13:31;6.8;;;0.9;;
6561;SDS011;3314;50.890;4.722;2022-10-16T12:15:20;8.3;;;0.8;;
6561;SDS011;3314;50.890;4.722;2022-10-16T12:17:25;11.6;;;0.9;;
6561;SDS011;3314;50.890;4.722;2022-10-16T12:19:26;8.1;;;0.9;;
6561;SDS011;3314;50.890;4.722;2022-10-16T12:21:29;8.0;;;0.7;;
6561;SDS011;3314;50.890;4.722;2022-10-16T12:23:19;6.3;;;0.6;;
6561;SDS011;3314;50.890;4.722;2022-10-16T12:25:20;8.3;;;0.8;;
6561;SDS011;3314;50.890;4.722;2022-10-16T12:27:21;7.7;;;0.7;;
6561;SDS011;3314;50.890;4.722;2022-10-16T12:29:26;7.5;;;1.0;;
6561;SDS011;3314;50.890;4.722;2022-10-16T12:31:17;7.5;;;0.8;;
6561;SDS011;3314;50.890;4.722;2022-10-16T12:33:19;6.3;;;0.8;;
6561;SDS011;3314;50.890;4.722;2022-10-16T12:35:21;7.3;;;0.7;;
6561;SDS011;3314;50.890;4.722;2022-10-16T12:37:23;7.4;;;1.1;;
6561;SDS011;3314;50.890;4.722;2022-10-16T12:39:23;9.6;;;0.8;;
6561;SDS011;3314;50.890;4.722;2022-10-16T12:41:24;5.8;;;0.7;;
6561;SDS011;3314;50.890;4.722;2022-10-16T12:43:26;7.0;;;0.9;;
6561;SDS011;3314;50.890;4.722;2022-10-16T12:45:27;7.2;;;0.8;;
6561;SDS011;3314;50.890;4.722;2022-10-16T12:47:20;6.1;;;0.8;;